Aeroporto :
LOGIN :

Iscrizione | Disclaimer

   EN    FR    IT 

 










Sommario :    VFR   VFR Marginale   IFR   IFR Intensivo   IFR Molto Intensivo
Visibilità : 
Base nubi : 
>= 8 km
>= 3000ft
5 / 8 km
1000 / 3000 ft
1500m / 5 km
500 / 1000 ft
800 / 1500m
200 / 500 ft
< 800m
< 200 ft
Simboli :   Temporali  Nebbia  Neve Forte  Precipitazioni Forti  Vento > 20 kt
SIGMETs :   Varie  Temporali  Ghiacco  Turbolenza  Onda orograficha  Ceneri Vulcaniche






- Altitudine del aeroporto : 46 ft
- Codice IATA : SNN


EINN - Shannon

ULTIMO METAR :
  • 111900Z 31007KT 9999 FEW012 20/16 Q1016 NOSIG

METARs OBSOLETI :
  • 111830Z 31008KT 9999 FEW012 21/16 Q1016 NOSIG
  • 111800Z 30009KT 9999 FEW012 SCT040 22/17 Q1015 NOSIG
  • 111730Z 29009KT 9999 FEW012 SCT040 22/17 Q1015 NOSIG
  • 111700Z 26005KT 9999 FEW012 23/16 Q1015 NOSIG
  • 111630Z 27005KT 9999 FEW012 SCT050 23/16 Q1015 NOSIG

TAF TAF EINN
Valido dal 11 a 18 ore il 12 a 18 ore UTC


111700Z 1118/1218 VRB03KT 9999 BKN040
TEMPO 1200/1209 3000 BR BKN006
PROB40
TEMPO 1201/1207 0400 FG BKN001



MetMap, La meteo Aeronautica in un colpo d'occhio ! - Copyright ORBIFLY Dicembre 2007 - Disclaimer

ORBIFLY MET'MAP TEAM :

Programmazione e sviluppo : Alexandra Zaïnal
Concezione : Baudouin d'Aumeries
Aiuto per la programmazione : Marc-Olivier Méhu
Supporto tecnico e logistico : Manuel Goepfert
Aiuto per la traduzione : Arnaldo La Scala

Contatto : metmap@orbifly.com




FONTI E CREDITI :

   NOAA